Historique des mesures à Cassis (13260), France
Quotidien Résumé Juin 12, 2018 Unités:  Métrique    US   Métrique/US
« Précédent (Jour)
Suivant (Jour) »
Quotidien Hebdomadaire Mensuel Annuel Période au choix
  Maximum: Minimum: Moyenne:
Température: TemperatureC °C 19.0 °C 22 °C
Point de rosée: DewpointC °C 15.2 °C 16.1 °C
Humidité: Humidity % 55 % 66 %
Vitesse du vent: 0 km/h 0 km/h 6.3 km/h
Rafales: 0 km/h - -
Vent:- - WSW
Pression: PressurehPa hPa 1005.2 hPa -
Précipitations: 0.0 mm    
Historical Graphs
 
 
Mesures pour : Juin 12, 2018
Heure Temperature Point de rosée Pression Vent Vitesse du vent Rafales Humidité Pluie (par heure) Conditions
TemperatureC °C DewpointC °C PressurehPa hPa Calm     Humidity % HourlyPrecipMM mm SoftwareType W/m2
00:10 21.6 °C 17.8 °C 1007.2 hPa Calm     79 % 0.0 mm open2300-1.11 W/m2
01:10 21.4 °C 17.8 °C 1007.0 hPa NW 2.9 km/h 2.9 km/h 80 % 0.0 mm open2300-1.11 W/m2
02:10 20.9 °C 17.5 °C 1006.3 hPa Calm     81 % 0.0 mm open2300-1.11 W/m2
03:10 20.5 °C 17.3 °C 1006.0 hPa Calm   2.9 km/h 82 % 0.0 mm open2300-1.11 W/m2
04:10 20.2 °C 16.9 °C 1005.6 hPa WNW 23.8 km/h 23.8 km/h 81 % 0.0 mm open2300-1.11 W/m2
05:10 19.3 °C 15.8 °C 1005.2 hPa NNW 8.9 km/h 8.9 km/h 80 % 0.0 mm open2300-1.11 W/m2
06:10 19.0 °C 15.5 °C 1005.3 hPa Calm     80 % 0.0 mm open2300-1.11 W/m2
07:10 19.0 °C 15.5 °C 1005.4 hPa NNW 5.1 km/h 6.4 km/h 80 % 0.0 mm open2300-1.11 W/m2
08:10 20.8 °C 16.6 °C 1005.5 hPa Calm   5.1 km/h 77 % 0.0 mm open2300-1.11 W/m2
09:10 20.9 °C 16.7 °C 1005.4 hPa Calm   8 km/h 77 % 0.0 mm open2300-1.11 W/m2
10:10 23.3 °C 18.4 °C 1005.6 hPa WSW 26.2 km/h 26.2 km/h 74 % 0.0 mm open2300-1.11 W/m2
11:10 25.1 °C 18.3 °C 1005.5 hPa NNW 15 km/h 29.5 km/h 66 % 0.0 mm open2300-1.11 W/m2
12:10 25.1 °C 17.3 °C 1005.9 hPa WNW 24.3 km/h 41.2 km/h 62 % 0.0 mm open2300-1.11 W/m2
13:10 25.9 °C 17.0 °C 1005.9 hPa West 7.6 km/h 27.2 km/h 58 % 0.0 mm open2300-1.11 W/m2
14:10 27.3 °C 17.7 °C 1005.6 hPa SE 8 km/h 13.2 km/h 56 % 0.0 mm open2300-1.11 W/m2
15:10 27.6 °C 17.7 °C 1005.4 hPa SW 16.3 km/h 16.3 km/h 55 % 0.0 mm open2300-1.11 W/m2
16:10 26.8 °C 17.3 °C 1005.8 hPa ESE 6.4 km/h 6.4 km/h 56 % 0.0 mm open2300-1.11 W/m2
17:10 25.9 °C 16.7 °C 1005.7 hPa Calm   17.4 km/h 57 % 0.0 mm open2300-1.11 W/m2
18:10 25.5 °C 16.6 °C 1005.3 hPa SW 7.6 km/h 7.6 km/h 58 % 0.0 mm open2300-1.11 W/m2
19:10 24.9 °C 16.1 °C 1005.4 hPa South 4.2 km/h 6.4 km/h 58 % 0.0 mm open2300-1.11 W/m2
20:10 23.6 °C 15.4 °C 1005.4 hPa NNE 2.3 km/h 8 km/h 60 % 0.0 mm open2300-1.11 W/m2
21:10 22.8 °C 15.6 °C 1005.4 hPa Calm   14 km/h 64 % 0.0 mm open2300-1.11 W/m2
22:10 21.8 °C 15.4 °C 1005.4 hPa Calm     67 % 0.0 mm open2300-1.11 W/m2
23:10 20.7 °C 15.2 °C 1005.5 hPa Calm     71 % 0.0 mm open2300-1.11 W/m2
Observations météo à CASSIS
WU-History script by Weather Underground - 1 mb